createdAt,value
2018-09-19T00:00:39.349Z,98337.01
2018-09-19T00:03:08.467Z,98333.42
2018-09-19T00:05:37.542Z,98333.74
2018-09-19T00:08:06.948Z,98337.33
2018-09-19T00:10:36.027Z,98343.75
2018-09-19T00:13:05.141Z,98344.42
2018-09-19T00:15:34.687Z,98342.58
2018-09-19T00:18:04.237Z,98342.85
2018-09-19T00:20:33.473Z,98347.48
2018-09-19T00:23:02.624Z,98343.51
2018-09-19T00:25:31.852Z,98344.32
2018-09-19T00:28:01.364Z,98348.37
2018-09-19T00:30:30.531Z,98341.10
2018-09-19T00:32:59.709Z,98338.69
2018-09-19T00:35:28.854Z,98343.08
2018-09-19T00:37:57.882Z,98346.47
2018-09-19T00:40:26.991Z,98346.89
2018-09-19T00:42:56.096Z,98343.32
2018-09-19T00:45:25.198Z,98346.47
2018-09-19T00:47:54.290Z,98338.69
2018-09-19T00:50:23.405Z,98347.67
2018-09-19T00:52:52.574Z,98352.30
2018-09-19T00:55:21.649Z,98354.25
2018-09-19T00:57:50.842Z,98349.16
2018-09-19T01:00:19.958Z,98344.80
2018-09-19T01:02:49.184Z,98343.83
2018-09-19T01:05:18.398Z,98342.89
2018-09-19T01:07:48.207Z,98340.16
2018-09-19T01:10:17.518Z,98344.67
2018-09-19T01:12:46.605Z,98342.97
2018-09-19T01:15:15.797Z,98344.95
2018-09-19T01:17:44.950Z,98345.11
2018-09-19T01:20:15.374Z,98339.46
2018-09-19T01:22:44.514Z,98344.63
2018-09-19T01:25:13.651Z,98341.17
2018-09-19T01:27:42.766Z,98336.89
2018-09-19T01:30:11.856Z,98336.90
2018-09-19T01:32:40.971Z,98342.91
2018-09-19T01:35:10.045Z,98352.04
2018-09-19T01:37:39.351Z,98346.95
2018-09-19T01:40:08.461Z,98354.42
2018-09-19T01:42:38.109Z,98358.71
2018-09-19T01:45:07.516Z,98357.27
2018-09-19T01:47:36.593Z,98361.01
2018-09-19T01:50:05.692Z,98357.57
2018-09-19T01:52:34.839Z,98358.44
2018-09-19T01:55:04.058Z,98365.63
2018-09-19T01:57:33.214Z,98370.63
2018-09-19T02:00:02.359Z,98371.21
2018-09-19T02:02:31.476Z,98367.70
2018-09-19T02:05:00.575Z,98368.47
2018-09-19T02:07:29.659Z,98371.81
2018-09-19T02:09:58.755Z,98367.43
2018-09-19T02:12:27.857Z,98374.86
2018-09-19T02:14:56.985Z,98371.60
2018-09-19T02:17:26.638Z,98371.02
2018-09-19T02:19:56.404Z,98374.36
2018-09-19T02:22:26.533Z,98372.98
2018-09-19T02:24:55.836Z,98375.51
2018-09-19T02:27:25.702Z,98374.74
2018-09-19T02:29:55.022Z,98378.94
2018-09-19T02:32:24.582Z,98380.59
2018-09-19T02:34:53.759Z,98383.89
2018-09-19T02:37:23.004Z,98379.35
2018-09-19T02:39:52.496Z,98382.64
2018-09-19T02:42:21.882Z,98381.05
2018-09-19T02:44:51.054Z,98382.41
2018-09-19T02:47:20.926Z,98387.77
2018-09-19T02:49:50.231Z,98385.41
2018-09-19T02:52:19.573Z,98391.29
2018-09-19T02:54:48.996Z,98388.83
2018-09-19T02:57:18.298Z,98385.20
2018-09-19T02:59:47.997Z,98384.64
2018-09-19T03:02:17.351Z,98390.08
2018-09-19T03:04:46.555Z,98395.03
2018-09-19T03:07:15.596Z,98396.01
2018-09-19T03:09:44.751Z,98397.88
2018-09-19T03:12:14.295Z,98393.11
2018-09-19T03:14:43.694Z,98399.20
2018-09-19T03:17:12.848Z,98392.78
2018-09-19T03:19:41.961Z,98394.63
2018-09-19T03:22:11.083Z,98403.02
2018-09-19T03:24:40.805Z,98407.05
2018-09-19T03:27:09.905Z,98413.15
2018-09-19T03:29:39.037Z,98409.90
2018-09-19T03:32:08.181Z,98405.86
2018-09-19T03:34:38.068Z,98401.16
2018-09-19T03:37:07.151Z,98404.02
2018-09-19T03:39:36.282Z,98404.79
2018-09-19T03:42:06.118Z,98408.14
2018-09-19T03:44:35.237Z,98410.70
2018-09-19T03:47:04.370Z,98413.05
2018-09-19T03:49:33.488Z,98414.03
2018-09-19T03:52:02.594Z,98403.43
2018-09-19T03:54:32.218Z,98402.23
2018-09-19T03:57:02.096Z,98410.22
2018-09-19T03:59:31.241Z,98409.23
2018-09-19T04:02:00.403Z,98407.23
2018-09-19T04:04:29.533Z,98406.98
2018-09-19T04:06:58.665Z,98413.25
2018-09-19T04:09:27.791Z,98416.09
2018-09-19T04:11:56.930Z,98410.88
2018-09-19T04:14:26.045Z,98403.60
2018-09-19T04:16:55.176Z,98411.77
2018-09-19T04:19:24.317Z,98412.36
2018-09-19T04:21:53.939Z,98412.38
2018-09-19T04:24:22.696Z,98417.38
2018-09-19T04:26:52.334Z,98413.41
2018-09-19T04:29:21.996Z,98412.03
2018-09-19T04:31:50.769Z,98412.81
2018-09-19T04:34:19.959Z,98417.33
2018-09-19T04:36:49.071Z,98418.50
2018-09-19T04:39:18.806Z,98419.48
2018-09-19T04:41:49.575Z,98421.55
2018-09-19T04:44:18.703Z,98419.48
2018-09-19T04:46:47.816Z,98418.42
2018-09-19T04:49:16.932Z,98427.55
2018-09-19T04:51:46.475Z,98425.88
2018-09-19T04:54:15.602Z,98426.88
2018-09-19T04:56:44.726Z,98435.26
2018-09-19T04:59:13.866Z,98437.21
2018-09-19T05:01:43.040Z,98435.55
2018-09-19T05:04:12.186Z,98433.59
2018-09-19T05:06:41.340Z,98439.80
2018-09-19T05:09:11.226Z,98435.94
2018-09-19T05:11:41.029Z,98440.38
2018-09-19T05:14:10.171Z,98447.83
2018-09-19T05:16:39.258Z,98446.77
2018-09-19T05:19:08.403Z,98457.31
2018-09-19T05:21:38.330Z,98460.87
2018-09-19T05:24:08.422Z,98461.97
2018-09-19T05:26:38.445Z,98463.64
2018-09-19T05:29:07.580Z,98464.52
2018-09-19T05:31:36.819Z,98460.08
2018-09-19T05:34:05.882Z,98470.73
2018-09-19T05:36:34.997Z,98476.86
2018-09-19T05:39:05.445Z,98478.66
2018-09-19T05:41:34.565Z,98474.88
2018-09-19T05:44:03.682Z,98476.47
2018-09-19T05:46:33.649Z,98476.77
2018-09-19T05:49:02.953Z,98482.59
2018-09-19T05:51:32.380Z,98487.03
2018-09-19T05:54:01.564Z,98483.96
2018-09-19T05:56:30.678Z,98479.63
2018-09-19T05:58:59.801Z,98482.88
2018-09-19T06:01:28.913Z,98482.57
2018-09-19T06:03:58.093Z,98489.08
2018-09-19T06:06:27.250Z,98487.83
2018-09-19T06:08:56.593Z,98487.43
2018-09-19T06:11:26.408Z,98492.92
2018-09-19T06:13:56.670Z,98488.45
2018-09-19T06:16:26.231Z,98482.77
2018-09-19T06:18:55.650Z,98484.25
2018-09-19T06:21:24.754Z,98487.75
2018-09-19T06:23:53.881Z,98488.56
2018-09-19T06:26:23.275Z,98486.63
2018-09-19T06:28:53.473Z,98493.35
2018-09-19T06:31:23.734Z,98495.94
2018-09-19T06:33:52.982Z,98497.47
2018-09-19T06:36:22.934Z,98496.50
2018-09-19T06:38:52.856Z,98503.06
2018-09-19T06:41:22.814Z,98494.33
2018-09-19T06:43:52.250Z,98495.95
2018-09-19T06:46:21.775Z,98503.22
2018-09-19T06:48:51.162Z,98499.30
2018-09-19T06:51:20.881Z,98514.45
2018-09-19T06:53:50.778Z,98511.05
2018-09-19T06:56:19.626Z,98512.67
2018-09-19T06:58:48.932Z,98507.05
2018-09-19T07:01:18.833Z,98512.26
2018-09-19T07:03:48.787Z,98512.17
2018-09-19T07:06:18.688Z,98514.64
2018-09-19T07:08:48.722Z,98520.67
2018-09-19T07:11:18.579Z,98517.18
2018-09-19T07:13:48.318Z,98512.59
2018-09-19T07:16:18.325Z,98521.04
2018-09-19T07:18:47.535Z,98523.17
2018-09-19T07:21:17.406Z,98519.53
2018-09-19T07:23:46.710Z,98510.25
2018-09-19T07:26:16.403Z,98507.18
2018-09-19T07:28:46.274Z,98518.45
2018-09-19T07:31:15.557Z,98521.34
2018-09-19T07:33:44.351Z,98520.92
2018-09-19T07:36:13.763Z,98523.95
2018-09-19T07:38:43.148Z,98526.66
2018-09-19T07:41:12.728Z,98533.80
2018-09-19T07:43:42.232Z,98543.77
2018-09-19T07:46:11.578Z,98538.97
2018-09-19T07:48:41.538Z,98538.72
2018-09-19T07:51:11.470Z,98548.06
2018-09-19T07:53:40.686Z,98548.48
2018-09-19T07:56:10.282Z,98540.84
2018-09-19T07:58:39.158Z,98539.05
2018-09-19T08:01:08.468Z,98534.73
2018-09-19T08:03:37.554Z,98544.13
2018-09-19T08:06:06.768Z,98544.69
2018-09-19T08:08:35.890Z,98545.22
2018-09-19T08:11:05.001Z,98539.11
2018-09-19T08:13:34.105Z,98538.34
2018-09-19T08:16:03.957Z,98537.60
2018-09-19T08:18:33.093Z,98533.42
2018-09-19T08:21:02.197Z,98535.52
2018-09-19T08:23:31.450Z,98535.55
2018-09-19T08:26:00.975Z,98530.75
2018-09-19T08:28:31.489Z,98532.89
2018-09-19T08:31:00.949Z,98533.34
2018-09-19T08:33:30.062Z,98533.86
2018-09-19T08:35:59.196Z,98531.67
2018-09-19T08:38:28.497Z,98530.97
2018-09-19T08:40:57.777Z,98534.14
2018-09-19T08:43:27.318Z,98547.38
2018-09-19T08:45:57.061Z,98550.46
2018-09-19T08:48:26.835Z,98542.20
2018-09-19T08:50:56.002Z,98537.78
2018-09-19T08:53:25.132Z,98541.42
2018-09-19T08:55:54.245Z,98536.30
2018-09-19T08:58:23.372Z,98537.60
2018-09-19T09:00:52.469Z,98533.20
2018-09-19T09:03:21.622Z,98540.30
2018-09-19T09:05:50.707Z,98540.65
2018-09-19T09:08:19.822Z,98534.39
2018-09-19T09:10:48.942Z,98533.28
2018-09-19T09:13:18.091Z,98531.88
2018-09-19T09:15:47.286Z,98538.91
2018-09-19T09:18:17.602Z,98532.71
2018-09-19T09:20:46.803Z,98538.80
2018-09-19T09:23:16.243Z,98538.28
2018-09-19T09:25:45.506Z,98530.25
2018-09-19T09:28:14.810Z,98533.77
2018-09-19T09:30:44.100Z,98535.13
2018-09-19T09:33:13.399Z,98532.47
2018-09-19T09:35:42.741Z,98531.16
2018-09-19T09:38:12.360Z,98534.39
2018-09-19T09:40:41.490Z,98533.38
2018-09-19T09:43:10.605Z,98532.55
2018-09-19T09:45:40.156Z,98524.38
2018-09-19T09:48:09.542Z,98521.97
2018-09-19T09:50:39.429Z,98520.69
2018-09-19T09:53:08.598Z,98525.55
2018-09-19T09:55:37.666Z,98518.72
2018-09-19T09:58:06.853Z,98514.24
2018-09-19T10:00:42.143Z,98514.55
2018-09-19T10:03:12.265Z,98511.95
2018-09-19T10:05:42.389Z,98513.71
2018-09-19T10:08:11.507Z,98506.73
2018-09-19T10:10:41.725Z,98504.41
2018-09-19T10:13:10.850Z,98502.08
2018-09-19T10:15:40.696Z,98500.10
2018-09-19T10:18:09.817Z,98501.84
2018-09-19T10:20:39.525Z,98500.83
2018-09-19T10:23:08.670Z,98507.36
2018-09-19T10:25:38.146Z,98500.64
2018-09-19T10:28:07.849Z,98497.55
2018-09-19T10:30:36.986Z,98493.53
2018-09-19T10:33:06.111Z,98498.52
2018-09-19T10:35:35.250Z,98490.44
2018-09-19T10:38:04.353Z,98490.41
2018-09-19T10:40:33.489Z,98491.63
2018-09-19T10:43:02.621Z,98489.44
2018-09-19T10:45:32.733Z,98487.42
2018-09-19T10:48:02.573Z,98487.12
2018-09-19T10:50:32.912Z,98485.19
2018-09-19T10:53:03.047Z,98483.26
2018-09-19T10:55:32.544Z,98485.84
2018-09-19T10:58:02.318Z,98477.45
2018-09-19T11:00:31.426Z,98480.11
2018-09-19T11:03:00.563Z,98473.75
2018-09-19T11:05:30.139Z,98470.98
2018-09-19T11:07:59.376Z,98473.45
2018-09-19T11:10:28.562Z,98473.27
2018-09-19T11:12:57.668Z,98474.73
2018-09-19T11:15:26.981Z,98467.53
2018-09-19T11:17:57.121Z,98473.48
2018-09-19T11:20:26.238Z,98467.52
2018-09-19T11:22:55.630Z,98464.02
2018-09-19T11:25:24.775Z,98465.34
2018-09-19T11:27:53.894Z,98455.97
2018-09-19T11:30:23.001Z,98456.03
2018-09-19T11:32:52.209Z,98450.23
2018-09-19T11:35:21.371Z,98445.69
2018-09-19T11:37:50.077Z,98439.52
2018-09-19T11:40:19.193Z,98435.02
2018-09-19T11:42:49.307Z,98428.95
2018-09-19T11:45:18.033Z,98425.77
2018-09-19T11:47:47.153Z,98423.37
2018-09-19T11:50:16.266Z,98419.98
2018-09-19T11:52:45.357Z,98412.62
2018-09-19T11:55:14.490Z,98413.67
2018-09-19T11:57:43.573Z,98412.73
2018-09-19T12:00:13.851Z,98410.98
2018-09-19T12:02:42.958Z,98406.70
2018-09-19T12:05:12.124Z,98411.31
2018-09-19T12:07:41.250Z,98418.45
2018-09-19T12:10:10.413Z,98408.96
2018-09-19T12:12:39.518Z,98404.06
2018-09-19T12:15:10.150Z,98405.95
2018-09-19T12:17:39.313Z,98401.31
2018-09-19T12:20:08.453Z,98400.63
2018-09-19T12:22:37.574Z,98402.75
2018-09-19T12:25:06.710Z,98398.27
2018-09-19T12:27:35.944Z,98394.48
2018-09-19T12:30:05.297Z,98397.22
2018-09-19T12:32:34.388Z,98393.98
2018-09-19T12:35:03.527Z,98396.41
2018-09-19T12:37:33.285Z,98383.82
2018-09-19T12:40:02.630Z,98382.19
2018-09-19T12:42:31.982Z,98378.12
2018-09-19T12:45:00.720Z,98378.67
2018-09-19T12:47:29.845Z,98363.36
2018-09-19T12:49:58.938Z,98373.00
2018-09-19T12:52:28.082Z,98373.36
2018-09-19T12:54:57.849Z,98375.01
2018-09-19T12:57:27.937Z,98368.05
2018-09-19T12:59:57.198Z,98362.06
2018-09-19T13:02:26.311Z,98360.47
2018-09-19T13:04:55.473Z,98359.84
2018-09-19T13:07:24.585Z,98355.65
2018-09-19T13:09:53.691Z,98354.55
2018-09-19T13:12:22.832Z,98357.62
2018-09-19T13:14:51.961Z,98352.97
2018-09-19T13:17:21.493Z,98364.61
2018-09-19T13:19:50.757Z,98345.63
2018-09-19T13:22:19.841Z,98347.14
2018-09-19T13:24:49.490Z,98344.82
2018-09-19T13:27:19.536Z,98345.50
2018-09-19T13:29:48.613Z,98342.08
2018-09-19T13:32:18.486Z,98346.31
2018-09-19T13:34:47.593Z,98333.08
2018-09-19T13:37:16.709Z,98337.82
2018-09-19T13:39:46.017Z,98343.57
2018-09-19T13:42:15.349Z,98339.11
2018-09-19T13:44:44.758Z,98334.69
2018-09-19T13:47:14.174Z,98327.25
2018-09-19T13:49:50.311Z,98328.92
2018-09-19T13:52:19.428Z,98323.95
2018-09-19T13:54:48.546Z,98320.84
2018-09-19T13:57:18.937Z,98326.86
2018-09-19T13:59:48.061Z,98313.03
2018-09-19T14:02:17.158Z,98323.39
2018-09-19T14:04:46.835Z,98323.36
2018-09-19T14:07:15.981Z,98322.95
2018-09-19T14:09:45.657Z,98330.63
2018-09-19T14:12:15.676Z,98326.75
2018-09-19T14:14:45.894Z,98330.96
2018-09-19T14:17:15.365Z,98323.26
2018-09-19T14:19:45.197Z,98327.98
2018-09-19T14:22:14.294Z,98325.95
2018-09-19T14:24:43.654Z,98317.13
2018-09-19T14:27:12.798Z,98326.52
2018-09-19T14:29:41.917Z,98323.09
2018-09-19T14:32:10.990Z,98326.79
2018-09-19T14:34:40.217Z,98321.12
2018-09-19T14:37:09.314Z,98318.27
2018-09-19T14:39:38.470Z,98315.98
2018-09-19T14:42:07.592Z,98310.95
2018-09-19T14:44:36.705Z,98310.09
2018-09-19T14:47:05.882Z,98311.06
2018-09-19T14:49:35.033Z,98307.29
2018-09-19T14:52:04.213Z,98310.77
2018-09-19T14:54:33.353Z,98306.79
2018-09-19T14:57:02.481Z,98302.45
2018-09-19T14:59:31.593Z,98295.75
2018-09-19T15:02:00.730Z,98290.96
2018-09-19T15:04:29.866Z,98296.69
2018-09-19T15:06:59.537Z,98293.98
2018-09-19T15:09:28.782Z,98290.72
2018-09-19T15:11:57.906Z,98290.09
2018-09-19T15:14:27.024Z,98293.89
2018-09-19T15:16:56.849Z,98289.67
2018-09-19T15:19:26.554Z,98287.22
2018-09-19T15:21:55.882Z,98284.48
2018-09-19T15:24:25.257Z,98277.25
2018-09-19T15:26:54.336Z,98278.47
2018-09-19T15:29:23.551Z,98282.84
2018-09-19T15:31:52.634Z,98284.77
2018-09-19T15:34:21.758Z,98280.21
2018-09-19T15:36:50.850Z,98284.00
2018-09-19T15:39:19.957Z,98285.73
2018-09-19T15:41:49.292Z,98287.72
2018-09-19T15:44:18.643Z,98291.80
2018-09-19T15:46:47.987Z,98293.03
2018-09-19T15:49:17.602Z,98293.26
2018-09-19T15:51:46.711Z,98291.12
2018-09-19T15:54:15.798Z,98291.16
2018-09-19T15:56:44.938Z,98292.02
2018-09-19T15:59:14.037Z,98290.02
2018-09-19T16:01:43.614Z,98292.42
2018-09-19T16:04:12.749Z,98296.11
2018-09-19T16:06:41.855Z,98295.25
2018-09-19T16:09:12.478Z,98297.28
2018-09-19T16:11:42.285Z,98294.80
2018-09-19T16:14:11.617Z,98301.41
2018-09-19T16:16:40.777Z,98300.17
2018-09-19T16:19:09.904Z,98302.22
2018-09-19T16:21:39.017Z,98298.71
2018-09-19T16:24:08.170Z,98303.35
2018-09-19T16:26:37.361Z,98309.41
2018-09-19T16:29:06.745Z,98310.24
2018-09-19T16:31:36.019Z,98310.11
2018-09-19T16:34:05.129Z,98316.00
2018-09-19T16:36:34.418Z,98316.78
2018-09-19T16:39:05.042Z,98320.38
2018-09-19T16:41:35.010Z,98320.88
2018-09-19T16:44:04.215Z,98317.33
2018-09-19T16:46:33.518Z,98320.45
2018-09-19T16:49:02.810Z,98322.95
2018-09-19T16:51:31.913Z,98320.55
2018-09-19T16:54:02.097Z,98320.32
2018-09-19T16:56:31.850Z,98317.25
2018-09-19T16:59:00.982Z,98320.39
2018-09-19T17:01:30.304Z,98319.88
2018-09-19T17:04:00.074Z,98320.42
2018-09-19T17:06:29.178Z,98322.22
2018-09-19T17:08:58.175Z,98323.38
2018-09-19T17:11:27.488Z,98320.97
2018-09-19T17:13:56.607Z,98328.52
2018-09-19T17:16:26.265Z,98336.20
2018-09-19T17:18:55.694Z,98331.19
2018-09-19T17:21:25.341Z,98333.42
2018-09-19T17:23:54.661Z,98331.74
2018-09-19T17:26:23.775Z,98334.02
2018-09-19T17:28:52.886Z,98332.06
2018-09-19T17:31:21.993Z,98337.64
2018-09-19T17:33:51.103Z,98337.24
2018-09-19T17:36:20.250Z,98342.05
2018-09-19T17:38:49.882Z,98347.91
2018-09-19T17:41:19.857Z,98352.16
2018-09-19T17:43:49.066Z,98347.78
2018-09-19T17:46:19.080Z,98342.36
2018-09-19T17:48:49.442Z,98347.89
2018-09-19T17:51:19.737Z,98349.77
2018-09-19T17:53:49.621Z,98352.92
2018-09-19T17:56:19.518Z,98352.46
2018-09-19T17:58:48.658Z,98355.34
2018-09-19T18:01:18.198Z,98357.67
2018-09-19T18:03:47.725Z,98358.71
2018-09-19T18:06:16.897Z,98360.57
2018-09-19T18:08:46.072Z,98365.48
2018-09-19T18:11:15.546Z,98369.14
2018-09-19T18:13:44.718Z,98370.44
2018-09-19T18:16:13.893Z,98368.36
2018-09-19T18:18:44.441Z,98371.21
2018-09-19T18:21:13.868Z,98370.63
2018-09-19T18:23:43.541Z,98369.08
2018-09-19T18:26:12.814Z,98372.20
2018-09-19T18:28:42.190Z,98372.70
2018-09-19T18:31:11.449Z,98375.55
2018-09-19T18:33:40.753Z,98377.59
2018-09-19T18:36:10.835Z,98377.80
2018-09-19T18:38:39.994Z,98381.73
2018-09-19T18:41:09.171Z,98379.10
2018-09-19T18:43:38.958Z,98382.14
2018-09-19T18:46:08.870Z,98390.41
2018-09-19T18:48:38.146Z,98396.36
2018-09-19T18:51:07.978Z,98400.40
2018-09-19T18:53:37.249Z,98406.50
2018-09-19T18:56:06.943Z,98401.42
2018-09-19T18:58:36.213Z,98402.34
2018-09-19T19:01:05.383Z,98402.84
2018-09-19T19:03:34.702Z,98401.35
2018-09-19T19:06:04.106Z,98403.94
2018-09-19T19:08:33.514Z,98406.02
2018-09-19T19:11:03.034Z,98410.16
2018-09-19T19:13:32.962Z,98409.55
2018-09-19T19:16:02.843Z,98413.58
2018-09-19T19:18:32.225Z,98420.42
2018-09-19T19:21:01.456Z,98425.25
2018-09-19T19:23:31.784Z,98420.23
2018-09-19T19:26:01.213Z,98415.13
2018-09-19T19:28:30.598Z,98420.59
2018-09-19T19:30:59.900Z,98422.27
2018-09-19T19:33:29.578Z,98425.22
2018-09-19T19:35:58.981Z,98426.55
2018-09-19T19:38:28.309Z,98432.62
2018-09-19T19:40:57.950Z,98432.16
2018-09-19T19:43:27.874Z,98435.36
2018-09-19T19:45:57.771Z,98437.31
2018-09-19T19:48:27.432Z,98435.17
2018-09-19T19:50:56.241Z,98441.38
2018-09-19T19:53:25.383Z,98435.56
2018-09-19T19:55:54.474Z,98431.70
2018-09-19T19:58:23.741Z,98431.53
2018-09-19T20:00:53.186Z,98437.87
2018-09-19T20:03:23.054Z,98435.20
2018-09-19T20:05:52.190Z,98432.70
2018-09-19T20:08:21.339Z,98435.20
2018-09-19T20:10:50.886Z,98433.17
2018-09-19T20:13:20.238Z,98439.08
2018-09-19T20:15:49.386Z,98439.16
2018-09-19T20:18:18.514Z,98436.58
2018-09-19T20:20:48.250Z,98443.97
2018-09-19T20:23:17.443Z,98441.03
2018-09-19T20:25:48.071Z,98439.60
2018-09-19T20:28:17.223Z,98436.30
2018-09-19T20:30:46.332Z,98441.69
2018-09-19T20:33:15.441Z,98437.47
2018-09-19T20:35:44.834Z,98431.52
2018-09-19T20:38:13.971Z,98431.32
2018-09-19T20:40:43.094Z,98434.21
2018-09-19T20:43:12.281Z,98439.51
2018-09-19T20:45:41.982Z,98439.60
2018-09-19T20:48:11.146Z,98437.48
2018-09-19T20:50:41.044Z,98433.70
2018-09-19T20:53:10.841Z,98438.69
2018-09-19T20:55:40.865Z,98438.27
2018-09-19T20:58:10.118Z,98438.73
2018-09-19T21:00:40.298Z,98438.34
2018-09-19T21:03:10.313Z,98443.91
2018-09-19T21:05:43.043Z,98443.02
2018-09-19T21:08:13.390Z,98444.26
2018-09-19T21:10:42.502Z,98451.55
2018-09-19T21:13:11.674Z,98447.77
2018-09-19T21:15:41.379Z,98449.13
2018-09-19T21:18:10.504Z,98455.00
2018-09-19T21:20:41.469Z,98456.58
2018-09-19T21:23:10.625Z,98459.16
2018-09-19T21:25:40.311Z,98461.11
2018-09-19T21:28:10.217Z,98463.54
2018-09-19T21:30:40.557Z,98470.07
2018-09-19T21:33:10.140Z,98472.09
2018-09-19T21:35:39.965Z,98476.19
2018-09-19T21:38:09.854Z,98476.25
2018-09-19T21:40:39.206Z,98476.33
2018-09-19T21:43:08.814Z,98478.77
2018-09-19T21:45:38.377Z,98471.06
2018-09-19T21:48:07.510Z,98473.88
2018-09-19T21:50:36.667Z,98478.46
2018-09-19T21:53:05.791Z,98476.45
2018-09-19T21:55:34.869Z,98473.55
2018-09-19T21:58:04.297Z,98473.09
2018-09-19T22:00:33.971Z,98465.09
2018-09-19T22:03:03.290Z,98466.30
2018-09-19T22:05:33.098Z,98470.14
2018-09-19T22:08:02.218Z,98467.22
2018-09-19T22:10:31.357Z,98469.69
2018-09-19T22:13:00.482Z,98470.06
2018-09-19T22:15:29.577Z,98467.25
2018-09-19T22:18:01.073Z,98463.02
2018-09-19T22:20:30.186Z,98461.13
2018-09-19T22:22:59.314Z,98461.83
2018-09-19T22:25:29.150Z,98458.27
2018-09-19T22:27:58.264Z,98464.13
2018-09-19T22:30:27.450Z,98468.98
2018-09-19T22:32:56.602Z,98465.33
2018-09-19T22:35:25.750Z,98461.73
2018-09-19T22:37:54.918Z,98470.51
2018-09-19T22:40:24.533Z,98473.01
2018-09-19T22:42:53.662Z,98470.09
2018-09-19T22:45:22.774Z,98473.05
2018-09-19T22:47:53.259Z,98466.06
2018-09-19T22:50:22.642Z,98470.92
2018-09-19T22:52:52.202Z,98469.36
2018-09-19T22:55:21.615Z,98471.94
2018-09-19T22:57:51.558Z,98474.51
2018-09-19T23:00:21.146Z,98468.42
2018-09-19T23:02:50.401Z,98471.94
2018-09-19T23:05:19.574Z,98467.36
2018-09-19T23:07:49.761Z,98471.09
2018-09-19T23:10:19.431Z,98467.06
2018-09-19T23:12:48.557Z,98466.08
2018-09-19T23:15:17.716Z,98472.66
2018-09-19T23:17:47.522Z,98478.80
2018-09-19T23:20:16.650Z,98475.58
2018-09-19T23:22:45.774Z,98477.66
2018-09-19T23:25:14.930Z,98475.10
2018-09-19T23:27:44.062Z,98477.39
2018-09-19T23:30:14.046Z,98475.08
2018-09-19T23:32:43.173Z,98478.89
2018-09-19T23:35:12.299Z,98477.39
2018-09-19T23:37:41.410Z,98478.37
2018-09-19T23:40:11.286Z,98474.80
2018-09-19T23:42:40.381Z,98474.11
2018-09-19T23:45:09.512Z,98465.03
2018-09-19T23:47:39.874Z,98468.03
2018-09-19T23:50:09.283Z,98466.06
2018-09-19T23:52:39.146Z,98470.89
2018-09-19T23:55:08.933Z,98471.98
2018-09-19T23:57:38.266Z,98478.52
